Time;durP1;ratioP1;P1;durP2;ratioP2;P2;SDS_P1;SDS_P2;PMS_P1;PMS_P2;Temp;Humidity;BMP_temperature;BMP_pressure;BME280_temperature;BME280_humidity;BME280_pressure;Samples;Min_cycle;Max_cycle;Signal;HPM_P1;HPM_P2
2024/03/12 00:01:26;;;;;;;5.80;2.33;;;6.90;99.90;;;;;;5026790;28;20081;-64
2024/03/12 00:03:54;;;;;;;5.22;2.45;;;6.90;99.90;;;;;;5028944;28;20657;-63
2024/03/12 00:06:22;;;;;;;3.95;2.70;;;7.00;99.90;;;;;;5026023;28;20058;-64
2024/03/12 00:08:49;;;;;;;3.42;2.28;;;7.00;99.90;;;;;;5024666;28;20046;-63
2024/03/12 00:11:15;;;;;;;3.75;2.13;;;7.00;99.90;;;;;;5024546;28;20555;-64
2024/03/12 00:13:42;;;;;;;3.55;2.33;;;7.00;99.90;;;;;;5024563;28;20064;-64
2024/03/12 00:16:09;;;;;;;4.43;2.78;;;7.00;99.90;;;;;;5027946;28;20054;-63
2024/03/12 00:18:36;;;;;;;3.95;2.10;;;7.00;99.90;;;;;;5027287;28;20061;-64
2024/03/12 00:21:03;;;;;;;6.05;2.20;;;7.00;99.90;;;;;;5027348;28;20049;-63
2024/03/12 00:23:30;;;;;;;4.25;2.10;;;7.00;99.90;;;;;;5027273;28;20060;-64
2024/03/12 00:25:57;;;;;;;2.72;2.20;;;6.90;99.90;;;;;;5023980;28;20049;-64
2024/03/12 00:28:23;;;;;;;3.63;1.98;;;7.00;99.90;;;;;;5024132;28;20045;-64
2024/03/12 00:30:50;;;;;;;3.22;2.30;;;6.90;99.90;;;;;;5025941;28;20721;-63
2024/03/12 00:33:18;;;;;;;3.83;2.78;;;7.00;99.90;;;;;;5027602;28;20136;-63
2024/03/12 00:35:46;;;;;;;4.90;2.53;;;7.00;99.90;;;;;;5026079;28;20414;-63
2024/03/12 00:38:13;;;;;;;4.25;2.30;;;7.00;99.90;;;;;;5024607;28;20481;-63
2024/03/12 00:40:42;;;;;;;4.15;2.28;;;7.00;99.90;;;;;;5028312;28;20061;-63
2024/03/12 00:43:09;;;;;;;3.53;2.50;;;7.00;99.90;;;;;;5028098;28;20246;-63
2024/03/12 00:45:36;;;;;;;3.80;2.58;;;7.00;99.90;;;;;;5026956;28;20168;-63
2024/03/12 00:48:06;;;;;;;3.20;2.38;;;7.00;99.90;;;;;;5028224;28;20069;-63
2024/03/12 00:50:33;;;;;;;3.83;2.42;;;7.00;99.90;;;;;;5026999;28;20411;-63
2024/03/12 00:53:02;;;;;;;4.30;2.30;;;7.00;99.90;;;;;;5023996;28;20049;-63
2024/03/12 00:55:29;;;;;;;4.20;2.20;;;7.00;99.90;;;;;;5028560;28;20052;-63
2024/03/12 00:58:00;;;;;;;4.85;2.38;;;7.10;99.90;;;;;;5027823;28;20144;-63
2024/03/12 01:00:33;;;;;;;2.78;2.25;;;7.10;99.90;;;;;;5026005;28;20057;-63
2024/03/12 01:03:01;;;;;;;5.68;2.40;;;7.10;99.90;;;;;;5024804;28;20046;-63
2024/03/12 01:05:31;;;;;;;4.22;2.13;;;7.10;99.90;;;;;;5025634;28;20049;-63
2024/03/12 01:07:59;;;;;;;2.35;2.03;;;7.10;99.90;;;;;;5027361;28;20444;-62
2024/03/12 01:10:29;;;;;;;2.40;1.67;;;7.10;99.90;;;;;;5027455;28;20054;-63
2024/03/12 01:12:58;;;;;;;2.70;2.20;;;7.20;99.90;;;;;;5022437;28;20045;-63
2024/03/12 01:15:25;;;;;;;2.78;2.05;;;7.20;99.90;;;;;;5027616;28;20052;-62
2024/03/12 01:17:53;;;;;;;4.05;2.05;;;7.30;99.90;;;;;;5025401;28;20049;-63
2024/03/12 01:20:22;;;;;;;3.60;2.00;;;7.40;99.90;;;;;;5025815;28;20060;-63
2024/03/12 01:22:51;;;;;;;4.10;1.92;;;7.40;99.90;;;;;;5024558;28;20517;-63
2024/03/12 01:25:21;;;;;;;2.80;2.10;;;7.50;99.90;;;;;;5024550;28;20470;-63
2024/03/12 01:27:48;;;;;;;2.50;2.03;;;7.50;99.90;;;;;;5019778;28;20054;-63
2024/03/12 01:30:16;;;;;;;2.53;1.90;;;7.50;99.90;;;;;;5023482;28;20489;-63
2024/03/12 01:32:45;;;;;;;4.47;1.77;;;7.50;99.90;;;;;;5023058;28;20052;-63
2024/03/12 01:35:13;;;;;;;3.95;1.95;;;7.50;99.90;;;;;;5027648;28;20053;-63
2024/03/12 01:37:45;;;;;;;4.05;2.10;;;7.50;99.90;;;;;;5026471;28;20057;-63
2024/03/12 01:40:21;;;;;;;3.00;2.00;;;7.40;99.90;;;;;;5025922;28;20494;-63
2024/03/12 01:42:50;;;;;;;4.60;2.15;;;7.40;99.90;;;;;;5026339;28;20418;-63
2024/03/12 01:45:22;;;;;;;4.40;2.03;;;7.40;99.90;;;;;;5028910;28;20077;-63
2024/03/12 01:47:54;;;;;;;3.38;1.90;;;7.30;99.90;;;;;;5027099;28;20124;-63
2024/03/12 01:50:24;;;;;;;2.58;2.00;;;7.30;99.90;;;;;;5027557;28;20076;-63
2024/03/12 01:52:59;;;;;;;5.82;2.10;;;7.30;99.90;;;;;;5025394;28;20045;-63
2024/03/12 01:55:26;;;;;;;4.32;2.22;;;7.30;99.90;;;;;;5028016;28;20045;-63
2024/03/12 01:57:54;;;;;;;3.45;1.85;;;7.40;99.90;;;;;;5025362;28;20045;-62
2024/03/12 02:00:21;;;;;;;4.05;1.52;;;7.40;99.90;;;;;;5022717;28;20081;-61
2024/03/12 02:02:52;;;;;;;3.92;2.58;;;7.50;99.90;;;;;;5025994;28;20180;-62
2024/03/12 02:05:19;;;;;;;3.13;1.65;;;7.50;99.90;;;;;;5025110;28;20073;-63
2024/03/12 02:07:48;;;;;;;4.57;2.03;;;7.50;99.90;;;;;;5023933;28;20521;-64
2024/03/12 02:10:16;;;;;;;3.17;1.92;;;7.60;99.90;;;;;;5018710;28;20478;-63
2024/03/12 02:12:46;;;;;;;3.78;1.80;;;7.70;99.90;;;;;;5022177;28;20049;-63
2024/03/12 02:15:20;;;;;;;2.63;1.80;;;7.70;99.90;;;;;;5024159;28;20049;-63
2024/03/12 02:17:51;;;;;;;2.53;1.85;;;7.70;99.90;;;;;;5021011;28;20046;-64
2024/03/12 02:20:18;;;;;;;3.70;2.10;;;7.70;99.90;;;;;;5024922;28;20449;-63
2024/03/12 02:22:45;;;;;;;3.42;1.50;;;7.80;99.90;;;;;;5023048;28;20053;-64
2024/03/12 02:25:13;;;;;;;2.17;1.98;;;7.80;99.90;;;;;;5023685;28;20125;-63
2024/03/12 02:27:39;;;;;;;2.92;1.75;;;7.80;99.90;;;;;;5026117;28;20046;-64
2024/03/12 02:30:08;;;;;;;6.43;2.00;;;7.80;99.90;;;;;;5025523;28;20041;-63
2024/03/12 02:32:36;;;;;;;2.75;1.85;;;7.90;99.90;;;;;;5021288;28;20045;-63
2024/03/12 02:35:04;;;;;;;5.00;2.15;;;7.90;99.90;;;;;;5007258;28;20041;-64
2024/03/12 02:37:31;;;;;;;3.35;2.40;;;7.90;99.90;;;;;;5025213;28;20184;-63
2024/03/12 02:39:57;;;;;;;2.63;1.98;;;7.90;99.90;;;;;;5023107;28;20144;-63
2024/03/12 02:42:25;;;;;;;4.65;1.92;;;7.90;99.90;;;;;;5023351;28;20042;-63
2024/03/12 02:44:52;;;;;;;4.53;2.10;;;7.90;99.90;;;;;;5025836;28;20037;-64
2024/03/12 02:47:20;;;;;;;6.40;2.33;;;7.90;99.90;;;;;;5022267;28;20038;-63
2024/03/12 02:49:48;;;;;;;3.65;2.38;;;7.90;99.90;;;;;;5022463;28;20072;-63
2024/03/12 02:52:15;;;;;;;4.80;2.13;;;7.90;99.90;;;;;;5023979;28;20539;-64
2024/03/12 02:54:41;;;;;;;3.30;2.30;;;7.90;99.90;;;;;;5018076;28;20487;-63
2024/03/12 02:57:11;;;;;;;4.75;2.35;;;7.90;99.90;;;;;;5022489;28;20513;-63
2024/03/12 02:59:38;;;;;;;4.17;2.43;;;7.90;99.90;;;;;;5021800;28;20659;-63
2024/03/12 03:02:05;;;;;;;5.43;2.60;;;7.90;99.90;;;;;;5023330;28;20311;-63
2024/03/12 03:04:36;;;;;;;3.70;2.42;;;7.90;99.90;;;;;;5022510;28;20053;-63
2024/03/12 03:07:07;;;;;;;5.47;2.40;;;7.90;99.90;;;;;;5020824;28;20064;-63
2024/03/12 03:09:34;;;;;;;3.15;2.55;;;7.90;99.90;;;;;;5024289;28;20526;-63
2024/03/12 03:12:01;;;;;;;3.55;2.53;;;7.90;99.90;;;;;;5020519;28;20058;-64
2024/03/12 03:14:27;;;;;;;2.92;2.13;;;7.90;99.90;;;;;;5022594;28;20053;-63
2024/03/12 03:16:55;;;;;;;5.35;2.65;;;7.90;99.90;;;;;;5023502;28;20172;-64
2024/03/12 03:19:22;;;;;;;6.10;2.95;;;7.90;99.90;;;;;;5022556;28;20069;-64
2024/03/12 03:21:49;;;;;;;6.15;2.65;;;7.90;99.90;;;;;;5022528;28;20053;-63
2024/03/12 03:24:16;;;;;;;3.42;2.50;;;7.90;99.90;;;;;;5022553;28;20439;-63
2024/03/12 03:26:43;;;;;;;3.90;2.67;;;7.80;99.90;;;;;;5023932;28;20355;-63
2024/03/12 03:29:11;;;;;;;5.32;2.88;;;7.80;99.90;;;;;;5021521;28;20053;-63
2024/03/12 03:31:41;;;;;;;5.15;3.17;;;7.80;99.90;;;;;;5022234;28;20054;-64
2024/03/12 03:34:10;;;;;;;4.18;2.60;;;7.80;99.90;;;;;;5025284;28;20119;-64
2024/03/12 03:36:39;;;;;;;3.08;2.55;;;7.70;99.90;;;;;;5027326;28;20071;-63
2024/03/12 03:39:08;;;;;;;3.90;2.13;;;7.70;99.90;;;;;;5008722;28;20049;-63
2024/03/12 03:41:35;;;;;;;5.85;2.65;;;7.70;99.90;;;;;;5025095;28;20052;-63
2024/03/12 03:44:02;;;;;;;4.93;2.88;;;7.70;99.90;;;;;;5024003;28;20596;-63
2024/03/12 03:46:29;;;;;;;6.88;2.60;;;7.70;99.90;;;;;;5022646;28;20049;-64
2024/03/12 03:48:57;;;;;;;3.47;2.50;;;7.70;99.90;;;;;;5024092;28;20073;-63
2024/03/12 03:51:25;;;;;;;6.32;2.55;;;7.60;99.90;;;;;;5025577;28;20042;-63
2024/03/12 03:53:52;;;;;;;6.78;2.75;;;7.60;99.90;;;;;;5024374;28;20096;-64
2024/03/12 03:56:19;;;;;;;2.78;2.47;;;7.60;99.90;;;;;;5025710;28;20429;-64
2024/03/12 03:58:47;;;;;;;4.38;2.67;;;7.60;99.90;;;;;;5024266;28;20092;-63
2024/03/12 04:01:14;;;;;;;5.55;2.80;;;7.50;99.90;;;;;;5024926;28;20046;-63
2024/03/12 04:03:41;;;;;;;5.80;2.53;;;7.60;99.90;;;;;;5022430;28;20054;-64
2024/03/12 04:06:08;;;;;;;5.85;2.85;;;7.60;99.90;;;;;;5022785;28;20049;-64
2024/03/12 04:08:35;;;;;;;3.85;2.40;;;7.50;99.90;;;;;;5024185;28;20445;-64
2024/03/12 04:11:03;;;;;;;5.38;2.92;;;7.50;99.90;;;;;;5020550;28;20041;-64
2024/03/12 04:13:32;;;;;;;2.67;2.42;;;7.50;99.90;;;;;;5024594;28;20394;-64
2024/03/12 04:15:59;;;;;;;5.55;2.83;;;7.40;99.90;;;;;;5021293;28;20042;-64
2024/03/12 04:18:27;;;;;;;4.55;2.58;;;7.50;99.90;;;;;;5024381;28;20096;-64
2024/03/12 04:20:55;;;;;;;2.80;2.40;;;7.40;99.90;;;;;;5023253;28;20053;-64
2024/03/12 04:23:23;;;;;;;4.30;2.55;;;7.40;99.90;;;;;;5021343;28;20042;-64
2024/03/12 04:25:49;;;;;;;5.18;2.40;;;7.40;99.90;;;;;;5022624;28;20073;-64
2024/03/12 04:28:19;;;;;;;5.90;2.78;;;7.50;99.90;;;;;;5025919;28;20050;-64
2024/03/12 04:30:48;;;;;;;3.42;2.55;;;7.50;99.90;;;;;;5026023;28;20062;-64
2024/03/12 04:33:17;;;;;;;7.30;2.80;;;7.50;99.90;;;;;;5026228;28;20053;-64
2024/03/12 04:35:44;;;;;;;5.88;2.28;;;7.50;99.90;;;;;;5026695;28;20046;-64
2024/03/12 04:38:12;;;;;;;3.05;2.17;;;7.50;99.90;;;;;;5025930;28;20073;-64
2024/03/12 04:40:43;;;;;;;2.88;2.03;;;7.50;99.90;;;;;;5025264;28;20049;-64
2024/03/12 04:43:10;;;;;;;3.30;2.10;;;7.50;99.90;;;;;;5029057;28;20539;-64
2024/03/12 04:45:36;;;;;;;4.55;2.20;;;7.60;99.90;;;;;;5008689;28;20081;-64
2024/03/12 04:48:03;;;;;;;4.18;2.65;;;7.60;99.90;;;;;;5027846;28;20486;-64
2024/03/12 04:50:30;;;;;;;4.55;2.25;;;7.60;99.90;;;;;;5011844;28;20056;-64
2024/03/12 04:52:57;;;;;;;2.28;2.05;;;7.60;99.90;;;;;;5025987;28;20052;-64
2024/03/12 04:55:24;;;;;;;3.13;1.63;;;7.60;99.90;;;;;;5027207;28;20072;-64
2024/03/12 04:57:50;;;;;;;2.70;1.63;;;7.50;99.90;;;;;;5028656;28;20053;-64
2024/03/12 05:00:21;;;;;;;3.08;1.48;;;7.50;99.90;;;;;;5023295;28;20072;-64
2024/03/12 05:02:51;;;;;;;5.53;2.00;;;7.50;99.90;;;;;;5009812;28;20555;-64
2024/03/12 05:05:20;;;;;;;2.13;1.63;;;7.40;99.90;;;;;;5024527;28;20048;-64
2024/03/12 05:07:47;;;;;;;3.22;2.00;;;7.40;99.90;;;;;;5026783;28;20107;-64
2024/03/12 05:10:15;;;;;;;2.70;1.75;;;7.40;99.90;;;;;;5026148;28;20391;-64
2024/03/12 05:12:43;;;;;;;2.40;1.83;;;7.40;99.90;;;;;;5027869;28;20054;-64
2024/03/12 05:15:10;;;;;;;3.58;2.03;;;7.40;99.90;;;;;;5028439;28;20502;-63
2024/03/12 05:17:40;;;;;;;2.63;1.85;;;7.40;99.90;;;;;;5027417;28;20057;-64
2024/03/12 05:20:14;;;;;;;3.13;1.90;;;7.40;99.90;;;;;;5027131;28;20068;-64
2024/03/12 05:22:41;;;;;;;3.45;2.35;;;7.40;99.90;;;;;;5028191;28;20053;-64
2024/03/12 05:25:22;;;;;;;3.15;1.75;;;7.40;99.90;;;;;;5024948;28;20046;-64
2024/03/12 05:27:50;;;;;;;3.65;1.90;;;7.30;99.90;;;;;;5026047;28;20046;-64
2024/03/12 05:30:20;;;;;;;2.95;1.67;;;7.30;99.90;;;;;;5028935;28;20045;-64
2024/03/12 05:32:48;;;;;;;2.40;1.90;;;7.30;99.90;;;;;;5028520;28;20552;-64
2024/03/12 05:35:25;;;;;;;2.15;1.95;;;7.30;99.90;;;;;;5029046;28;20048;-64
2024/03/12 05:38:02;;;;;;;3.45;2.35;;;7.30;99.90;;;;;;5025754;28;20418;-64
2024/03/12 05:40:43;;;;;;;2.10;1.90;;;7.40;99.90;;;;;;5026153;28;20631;-64
2024/03/12 05:48:42;;;;;;;3.33;2.13;;;7.40;99.90;;;;;;5028348;28;20111;-64
2024/03/12 05:51:09;;;;;;;3.97;2.20;;;7.40;99.90;;;;;;5027751;28;20051;-64
2024/03/12 05:53:38;;;;;;;2.97;1.83;;;7.40;99.90;;;;;;5025434;28;20492;-64
2024/03/12 05:56:09;;;;;;;2.65;2.10;;;7.40;99.90;;;;;;5026605;28;20053;-64
2024/03/12 05:58:37;;;;;;;2.85;2.33;;;7.40;99.90;;;;;;5025130;28;20132;-64
2024/03/12 06:01:04;;;;;;;3.67;2.28;;;7.40;99.90;;;;;;5025904;28;20512;-64
2024/03/12 06:03:32;;;;;;;3.22;1.90;;;7.40;99.90;;;;;;5025908;28;20144;-63
2024/03/12 06:05:59;;;;;;;2.78;2.28;;;7.40;99.90;;;;;;5026569;28;20056;-64
2024/03/12 06:08:25;;;;;;;3.25;2.17;;;7.40;99.90;;;;;;5026468;28;20124;-64
2024/03/12 06:10:52;;;;;;;1.42;1.33;;;7.40;99.90;;;;;;5026797;28;21716;-63
2024/03/12 06:13:22;;;;;;;2.63;1.50;;;7.30;99.90;;;;;;5026625;28;20042;-64
2024/03/12 06:15:49;;;;;;;;;;;7.30;99.90;;;;;;5025638;28;20046;-64
2024/03/12 06:18:20;;;;;;;1.67;1.58;;;7.30;99.90;;;;;;5022396;28;19931;-64
2024/03/12 06:20:48;;;;;;;2.88;1.92;;;7.20;99.90;;;;;;5022626;28;20049;-64
2024/03/12 06:23:15;;;;;;;3.67;1.45;;;7.20;99.90;;;;;;5020978;28;20104;-63
2024/03/12 06:25:42;;;;;;;1.90;1.30;;;7.20;99.90;;;;;;5022564;28;20468;-64
2024/03/12 06:28:11;;;;;;;2.97;2.15;;;7.20;99.90;;;;;;5005849;28;20050;-63
2024/03/12 06:30:38;;;;;;;1.98;1.50;;;7.20;99.90;;;;;;5024618;28;20170;-63
2024/03/12 06:33:08;;;;;;;3.58;1.67;;;7.20;99.90;;;;;;5023589;28;20529;-63
2024/03/12 06:35:35;;;;;;;2.63;1.40;;;7.20;99.90;;;;;;5004171;28;20042;-63
2024/03/12 06:38:04;;;;;;;1.60;1.40;;;7.30;99.90;;;;;;5024439;28;20053;-63
2024/03/12 06:40:32;;;;;;;1.85;1.20;;;7.30;99.90;;;;;;5027889;28;20052;-63
2024/03/12 06:42:59;;;;;;;3.40;1.40;;;7.30;99.90;;;;;;5025272;28;20099;-63
2024/03/12 06:45:29;;;;;;;4.43;1.63;;;7.40;99.90;;;;;;5023583;28;20049;-63
2024/03/12 06:47:56;;;;;;;2.65;1.70;;;7.40;99.90;;;;;;5020359;28;20056;-63
2024/03/12 06:50:26;;;;;;;3.28;1.92;;;7.40;99.90;;;;;;5025962;28;20469;-63
2024/03/12 06:52:54;;;;;;;2.47;1.77;;;7.40;99.90;;;;;;5022235;28;20041;-64
2024/03/12 06:55:24;;;;;;;4.35;2.10;;;7.50;99.90;;;;;;5024549;28;20125;-64
2024/03/12 06:57:54;;;;;;;;;;;7.50;99.90;;;;;;5028229;28;20142;-64
2024/03/12 07:00:37;;;;;;;4.00;2.50;;;7.50;99.90;;;;;;5023834;28;20008;-64
2024/03/12 07:03:05;;;;;;;3.50;2.10;;;7.50;99.90;;;;;;5024423;28;20045;-64
2024/03/12 07:05:43;;;;;;;4.18;2.20;;;7.60;99.90;;;;;;5024838;28;20058;-64
2024/03/12 07:08:10;;;;;;;3.42;2.53;;;7.60;99.90;;;;;;5022521;28;20069;-64
2024/03/12 07:10:40;;;;;;;3.72;2.28;;;7.60;99.90;;;;;;5020291;28;20057;-64
2024/03/12 07:13:07;;;;;;;6.30;2.78;;;7.70;99.90;;;;;;5019915;28;20391;-64
2024/03/12 07:15:36;;;;;;;4.85;3.03;;;7.70;99.90;;;;;;5025916;28;20049;-64
2024/03/12 07:18:03;;;;;;;4.35;2.90;;;7.80;99.90;;;;;;5020781;28;20496;-64
2024/03/12 07:20:31;;;;;;;5.55;3.28;;;7.90;99.90;;;;;;5015272;28;20058;-64
2024/03/12 07:22:58;;;;;;;6.40;2.80;;;8.00;99.90;;;;;;5024786;28;20058;-64
2024/03/12 07:25:25;;;;;;;4.10;2.85;;;8.00;99.90;;;;;;5022950;28;20390;-64
2024/03/12 07:27:53;;;;;;;4.20;3.03;;;8.00;99.90;;;;;;5026499;28;20115;-64
2024/03/12 07:30:24;;;;;;;6.18;3.13;;;8.00;99.90;;;;;;5021313;28;20092;-64
2024/03/12 07:32:52;;;;;;;4.40;2.80;;;8.10;99.90;;;;;;5024450;28;20100;-64
2024/03/12 07:35:19;;;;;;;4.57;2.40;;;8.10;99.90;;;;;;5024127;28;20451;-64
2024/03/12 07:37:46;;;;;;;7.90;2.88;;;8.20;99.90;;;;;;5003425;28;20661;-64
2024/03/12 07:40:15;;;;;;;4.60;3.15;;;8.20;99.90;;;;;;5023105;28;20136;-63
2024/03/12 07:42:44;;;;;;;4.57;2.80;;;8.20;99.90;;;;;;5020709;28;20053;-64
2024/03/12 07:45:14;;;;;;;6.55;3.88;;;8.20;99.90;;;;;;5027440;28;20067;-64
2024/03/12 07:47:41;;;;;;;7.20;4.38;;;8.20;99.90;;;;;;5024863;28;20057;-64
2024/03/12 07:50:13;;;;;;;3.90;2.83;;;8.30;99.90;;;;;;5024474;28;20059;-64
2024/03/12 07:52:40;;;;;;;6.55;3.28;;;8.30;99.90;;;;;;5023542;28;20076;-64
2024/03/12 07:55:10;;;;;;;4.55;2.85;;;8.40;99.90;;;;;;5025080;28;20049;-64
2024/03/12 07:57:37;;;;;;;3.83;3.05;;;8.40;99.90;;;;;;5024609;28;20072;-64
2024/03/12 08:00:05;;;;;;;5.68;2.80;;;8.50;99.90;;;;;;5020438;28;20473;-64
2024/03/12 08:02:32;;;;;;;9.07;3.05;;;8.60;99.90;;;;;;5028706;28;20136;-64
2024/03/12 08:04:59;;;;;;;5.30;2.78;;;8.70;99.90;;;;;;5028513;28;20138;-64
2024/03/12 08:07:25;;;;;;;4.32;3.00;;;8.80;99.90;;;;;;5025293;28;20230;-64
2024/03/12 08:09:52;;;;;;;4.88;3.38;;;8.70;99.90;;;;;;5030585;28;20136;-63
2024/03/12 08:12:19;;;;;;;4.40;3.22;;;8.70;99.90;;;;;;5025666;28;20038;-64
2024/03/12 08:14:46;;;;;;;4.28;3.00;;;8.80;99.90;;;;;;5030311;28;20050;-63
2024/03/12 08:17:13;;;;;;;6.40;3.50;;;8.80;99.90;;;;;;5024572;28;20050;-64
2024/03/12 08:19:42;;;;;;;6.55;3.58;;;8.90;99.90;;;;;;5029757;28;20061;-64
2024/03/12 08:22:09;;;;;;;5.00;3.63;;;9.00;99.90;;;;;;5026783;28;20053;-64
2024/03/12 08:24:40;;;;;;;7.05;4.07;;;9.00;99.90;;;;;;5023591;28;20107;-63
2024/03/12 08:27:07;;;;;;;5.20;3.58;;;8.90;99.90;;;;;;5026201;28;20103;-64
2024/03/12 08:29:34;;;;;;;6.05;3.75;;;8.90;99.90;;;;;;5030170;28;20449;-64
2024/03/12 08:32:00;;;;;;;5.18;3.85;;;8.90;99.90;;;;;;5024267;28;20402;-64
2024/03/12 08:34:28;;;;;;;6.53;3.90;;;8.90;99.90;;;;;;5026782;28;20042;-64
2024/03/12 08:36:55;;;;;;;6.20;3.83;;;8.90;99.90;;;;;;5027631;28;20069;-64
2024/03/12 08:39:25;;;;;;;6.90;4.40;;;9.00;99.90;;;;;;5025968;28;20122;-64
2024/03/12 08:41:55;;;;;;;7.45;4.03;;;9.00;99.90;;;;;;5029850;28;20158;-64
2024/03/12 08:44:22;;;;;;;7.32;4.47;;;9.00;99.90;;;;;;5026171;28;20048;-64
2024/03/12 08:46:50;;;;;;;8.63;4.72;;;9.20;99.90;;;;;;5028890;28;20405;-64
2024/03/12 08:49:17;;;;;;;10.75;4.65;;;9.30;99.90;;;;;;5028044;28;20130;-64
2024/03/12 08:51:44;;;;;;;6.55;4.22;;;9.40;99.90;;;;;;5027534;28;20053;-64
2024/03/12 08:54:13;;;;;;;6.72;4.18;;;9.50;99.90;;;;;;5026845;28;20099;-64
2024/03/12 08:56:42;;;;;;;8.52;4.75;;;9.70;99.90;;;;;;5030498;28;20132;-64
2024/03/12 08:59:13;;;;;;;6.63;4.88;;;9.80;99.90;;;;;;5024904;28;20048;-64
2024/03/12 09:01:40;;;;;;;7.35;4.03;;;9.90;99.90;;;;;;5027620;28;20445;-64
2024/03/12 09:04:07;;;;;;;6.57;4.38;;;10.00;99.90;;;;;;5027660;28;20489;-64
2024/03/12 09:06:35;;;;;;;7.57;4.78;;;10.00;99.90;;;;;;5026014;28;20077;-64
2024/03/12 09:09:02;;;;;;;8.90;4.85;;;10.10;99.90;;;;;;5028740;28;20757;-63
2024/03/12 09:11:29;;;;;;;10.02;4.90;;;10.20;99.90;;;;;;5028619;28;20041;-64
2024/03/12 09:13:55;;;;;;;8.50;5.10;;;10.30;99.90;;;;;;5028658;28;20049;-64
2024/03/12 09:16:22;;;;;;;6.95;4.65;;;10.30;99.90;;;;;;5029461;28;20045;-64
2024/03/12 09:18:49;;;;;;;7.20;4.20;;;10.40;99.90;;;;;;5027908;28;20049;-66
2024/03/12 09:21:18;;;;;;;7.18;4.40;;;10.60;99.90;;;;;;5026111;28;20559;-64
2024/03/12 09:23:45;;;;;;;6.40;4.78;;;10.80;99.90;;;;;;5028922;28;20061;-64
2024/03/12 09:26:27;;;;;;;8.18;4.68;;;10.80;99.90;;;;;;5022917;28;20136;-64
2024/03/12 09:28:54;;;;;;;9.25;4.97;;;10.80;99.90;;;;;;5029148;28;20132;-64
2024/03/12 09:31:21;;;;;;;7.30;4.95;;;10.90;99.90;;;;;;5028788;28;20041;-64
2024/03/12 09:33:48;;;;;;;8.30;4.95;;;10.90;99.90;;;;;;5029781;28;20050;-64
2024/03/12 09:36:15;;;;;;;7.97;4.97;;;11.00;99.90;;;;;;5025067;28;20099;-64
2024/03/12 09:38:44;;;;;;;6.93;4.82;;;10.90;99.90;;;;;;5007150;28;20057;-64
2024/03/12 09:41:13;;;;;;;9.15;4.78;;;10.80;99.90;;;;;;5028264;28;20049;-64
2024/03/12 09:43:43;;;;;;;6.85;4.82;;;10.80;99.90;;;;;;5028912;28;20050;-64
2024/03/12 09:46:16;;;;;;;7.07;4.95;;;10.90;99.90;;;;;;5023530;28;20049;-64
2024/03/12 09:48:44;;;;;;;8.65;4.90;;;10.90;99.90;;;;;;5028401;28;20064;-64
2024/03/12 09:51:12;;;;;;;8.35;5.03;;;11.10;99.90;;;;;;5022217;28;20502;-64
2024/03/12 09:53:41;;;;;;;12.60;6.35;;;11.40;99.90;;;;;;5027418;28;20062;-64
2024/03/12 09:56:10;;;;;;;8.82;5.72;;;11.70;99.90;;;;;;5028787;28;20095;-64
2024/03/12 09:58:37;;;;;;;10.50;6.10;;;11.90;99.90;;;;;;5025848;28;20061;-64
2024/03/12 10:01:06;;;;;;;9.70;5.53;;;12.10;99.90;;;;;;5026160;28;20124;-64
2024/03/12 10:03:36;;;;;;;8.70;6.10;;;12.20;99.90;;;;;;5027881;28;20052;-64
2024/03/12 10:06:03;;;;;;;11.10;6.10;;;12.20;99.90;;;;;;5023465;28;20064;-64
2024/03/12 10:08:31;;;;;;;9.52;6.20;;;12.10;99.90;;;;;;5024386;28;20526;-64
2024/03/12 10:11:02;;;;;;;8.77;5.90;;;12.30;99.90;;;;;;5024498;28;20049;-64
2024/03/12 10:13:30;;;;;;;10.55;7.18;;;12.40;99.90;;;;;;5027880;28;20052;-64
2024/03/12 10:16:03;;;;;;;9.52;6.57;;;12.20;99.90;;;;;;5027434;28;20057;-64
2024/03/12 10:18:34;;;;;;;9.75;6.93;;;12.00;99.90;;;;;;5028582;28;20053;-64
2024/03/12 10:21:01;;;;;;;11.15;6.90;;;12.10;99.90;;;;;;5027033;28;20506;-64
2024/03/12 10:23:34;;;;;;;10.70;6.95;;;12.00;99.90;;;;;;5024489;28;20053;-64
2024/03/12 10:26:09;;;;;;;10.35;6.47;;;12.10;99.90;;;;;;5025000;28;20616;-64
2024/03/12 10:28:37;;;;;;;12.50;8.02;;;12.20;99.90;;;;;;5025487;28;20553;-64
2024/03/12 10:31:10;;;;;;;13.85;8.38;;;12.30;99.90;;;;;;5027414;28;20099;-64
2024/03/12 10:33:42;;;;;;;13.73;8.60;;;12.50;99.90;;;;;;5028020;28;20057;-64
2024/03/12 10:36:10;;;;;;;11.75;8.00;;;12.40;99.90;;;;;;5024501;28;20072;-64
2024/03/12 10:38:39;;;;;;;11.85;7.55;;;12.50;99.90;;;;;;5027994;28;20436;-64
2024/03/12 10:41:15;;;;;;;12.45;7.80;;;12.40;99.90;;;;;;5025357;28;20065;-64
2024/03/12 10:43:44;;;;;;;14.70;8.40;;;12.40;99.90;;;;;;5025346;28;20060;-64
2024/03/12 10:46:11;;;;;;;9.98;6.65;;;12.40;99.90;;;;;;5023664;28;20053;-64
2024/03/12 10:48:40;;;;;;;15.10;8.80;;;12.50;99.90;;;;;;5027704;28;20073;-64
2024/03/12 10:51:12;;;;;;;12.02;7.85;;;12.40;99.90;;;;;;5024072;28;20052;-64
2024/03/12 10:53:42;;;;;;;12.93;8.82;;;12.50;99.90;;;;;;5025435;28;20053;-64
2024/03/12 10:56:10;;;;;;;15.40;9.40;;;12.40;99.90;;;;;;5027174;28;20069;-64
2024/03/12 10:58:46;;;;;;;12.27;8.80;;;12.30;99.90;;;;;;5025020;28;20727;-64
2024/03/12 11:01:16;;;;;;;13.95;9.40;;;12.30;99.90;;;;;;5024636;28;20049;-64
2024/03/12 11:03:44;;;;;;;13.20;8.77;;;12.40;99.90;;;;;;5023993;28;20532;-64
2024/03/12 11:06:13;;;;;;;15.38;9.05;;;12.40;99.90;;;;;;5023212;28;20461;-64
2024/03/12 11:08:43;;;;;;;13.18;8.48;;;12.30;99.90;;;;;;5025694;28;20053;-64
2024/03/12 11:11:10;;;;;;;15.40;8.77;;;12.30;99.90;;;;;;5024236;28;20053;-64
2024/03/12 11:13:37;;;;;;;13.65;9.98;;;12.50;99.90;;;;;;5023212;28;20053;-64
2024/03/12 11:16:17;;;;;;;12.23;8.80;;;12.70;99.90;;;;;;5024428;28;20512;-63
2024/03/12 11:18:45;;;;;;;;;;;12.60;99.90;;;;;;5027813;28;20486;-64
2024/03/12 11:21:13;;;;;;;15.02;9.57;;;12.40;99.90;;;;;;5023519;28;20389;-64
2024/03/12 11:23:40;;;;;;;15.48;9.27;;;12.30;99.90;;;;;;5023958;28;20046;-64
2024/03/12 11:26:08;;;;;;;16.00;10.35;;;12.30;99.90;;;;;;5021155;28;20500;-64
2024/03/12 11:28:57;;;;;;;14.75;9.07;;;12.10;99.90;;;;;;5025376;28;20128;-64
2024/03/12 11:31:24;;;;;;;17.25;9.77;;;12.10;99.90;;;;;;5021379;28;20041;-64
2024/03/12 11:33:52;;;;;;;14.15;9.27;;;12.00;99.90;;;;;;5027128;28;20049;-64
2024/03/12 11:36:28;;;;;;;16.80;9.43;;;11.70;99.90;;;;;;5024954;28;20405;-64
2024/03/12 11:39:11;;;;;;;17.10;9.77;;;11.40;99.90;;;;;;5026503;28;20096;-63
2024/03/12 11:42:17;;;;;;;14.98;9.57;;;11.40;99.90;;;;;;5022852;28;20136;-64
2024/03/12 11:44:54;;;;;;;15.02;9.85;;;11.40;99.90;;;;;;4932444;29;20058;-63
2024/03/12 11:47:36;;;;;;;14.10;9.35;;;11.60;99.90;;;;;;4927993;29;20043;-64
2024/03/12 11:50:24;;;;;;;17.48;10.43;;;11.50;99.90;;;;;;4992825;28;20096;-64
2024/03/12 11:52:51;;;;;;;13.07;9.30;;;11.40;99.90;;;;;;5023705;28;20402;-64
2024/03/12 11:55:54;;;;;;;14.10;8.77;;;11.20;99.90;;;;;;5023573;28;20375;-64
2024/03/12 11:58:33;;;;;;;16.48;9.40;;;11.20;99.90;;;;;;5019645;28;20056;-64
2024/03/12 12:01:01;;;;;;;12.35;8.38;;;11.10;99.90;;;;;;5023514;28;20064;-64
2024/03/12 12:03:28;;;;;;;17.23;10.10;;;11.10;99.90;;;;;;5024679;28;20163;-64
2024/03/12 12:05:55;;;;;;;16.55;10.23;;;11.10;99.90;;;;;;5026710;28;20053;-64
2024/03/12 12:08:23;;;;;;;16.40;9.15;;;11.10;99.90;;;;;;5006276;28;20391;-64
2024/03/12 12:10:59;;;;;;;16.05;10.32;;;11.10;99.90;;;;;;5022624;28;20513;-64
2024/03/12 12:13:27;;;;;;;16.38;9.85;;;11.10;99.90;;;;;;5025887;28;20041;-64
2024/03/12 12:16:01;;;;;;;16.33;10.07;;;11.30;99.90;;;;;;5027153;28;20116;-64
2024/03/12 12:18:29;;;;;;;15.25;10.20;;;11.20;99.90;;;;;;5026564;28;20095;-64
2024/03/12 12:21:00;;;;;;;15.77;10.93;;;11.30;99.90;;;;;;5026258;28;20053;-64
2024/03/12 12:23:27;;;;;;;;;;;11.20;99.90;;;;;;5025338;28;20080;-64
2024/03/12 12:25:54;;;;;;;17.48;10.55;;;11.20;99.90;;;;;;5024006;28;19964;-64
2024/03/12 12:28:25;;;;;;;19.23;10.60;;;11.30;99.90;;;;;;5024992;28;20556;-64
2024/03/12 12:31:00;;;;;;;15.90;10.25;;;11.30;99.90;;;;;;5023538;28;20132;-63
2024/03/12 12:33:33;;;;;;;16.58;10.85;;;11.50;99.90;;;;;;5021919;28;20111;-63
2024/03/12 12:36:08;;;;;;;21.33;12.02;;;11.50;99.90;;;;;;5022242;28;20426;-63
2024/03/12 12:38:36;;;;;;;17.27;11.48;;;11.70;99.90;;;;;;5025295;28;20129;-63
2024/03/12 12:41:04;;;;;;;20.30;11.85;;;11.90;99.90;;;;;;5024565;28;20056;-63
2024/03/12 12:43:36;;;;;;;22.30;12.35;;;12.10;99.90;;;;;;5026597;28;20045;-63
2024/03/12 12:46:05;;;;;;;20.73;11.55;;;12.20;99.90;;;;;;5024911;28;20053;-63
2024/03/12 12:48:35;;;;;;;15.60;11.20;;;12.50;99.90;;;;;;5027013;28;20049;-63
2024/03/12 12:51:05;;;;;;;17.95;11.00;;;12.60;99.90;;;;;;5028760;28;20041;-63
2024/03/12 12:53:32;;;;;;;16.02;10.45;;;12.60;99.90;;;;;;5024948;28;20068;-63
2024/03/12 12:56:03;;;;;;;16.17;10.38;;;12.50;99.90;;;;;;5028005;28;20053;-62
2024/03/12 12:58:33;;;;;;;17.27;11.23;;;12.40;99.90;;;;;;5024853;28;20053;-63
2024/03/12 13:01:05;;;;;;;;;;;12.20;99.90;;;;;;5024661;28;20665;-63
2024/03/12 13:03:40;;;;;;;18.67;11.18;;;12.10;99.90;;;;;;5029411;28;19933;-63
2024/03/12 13:06:23;;;;;;;18.92;10.98;;;12.10;99.90;;;;;;5026959;28;20567;-63
2024/03/12 13:08:51;;;;;;;18.48;12.13;;;12.00;99.90;;;;;;5026751;28;20119;-63